International Virtual Aviation Organisation

Russian Federation and Kazakhstan MCD

 
UUOO 271730Z 21005MPS 9999 OVC024 04/02 Q1016 R12/290050 NOSIG RMK QFE748
QNH:(hPa/inHg/mmHg)1016 / 30 / 762
QFE:(hPa/inHg/mmHg)997 / 29.44 / 748
Temperature4
Dew Point2
Visibility> 10000
Weather
Cloud CoverOVC (2400);
Transition Height600 m./2500 ft.
Transition LevelFL40
SQUAWK